sensor_id;sensor_type;location;lat;lon;timestamp;P1;durP1;ratioP1;P2;durP2;ratioP2
74328;SDS011;62745;51.060;13.786;2023-10-09T00:01:03;5.13;;;1.83;;
74328;SDS011;62745;51.060;13.786;2023-10-09T00:03:30;5.90;;;2.20;;
74328;SDS011;62745;51.060;13.786;2023-10-09T00:05:56;7.20;;;1.83;;
74328;SDS011;62745;51.060;13.786;2023-10-09T00:08:22;5.28;;;1.85;;
74328;SDS011;62745;51.060;13.786;2023-10-09T00:10:52;5.38;;;1.77;;
74328;SDS011;62745;51.060;13.786;2023-10-09T00:13:23;7.93;;;2.03;;
74328;SDS011;62745;51.060;13.786;2023-10-09T00:15:57;7.65;;;1.85;;
74328;SDS011;62745;51.060;13.786;2023-10-09T00:18:33;5.63;;;1.77;;
74328;SDS011;62745;51.060;13.786;2023-10-09T00:20:59;4.50;;;1.63;;
74328;SDS011;62745;51.060;13.786;2023-10-09T00:23:38;4.60;;;1.63;;
74328;SDS011;62745;51.060;13.786;2023-10-09T00:26:04;5.88;;;1.80;;
74328;SDS011;62745;51.060;13.786;2023-10-09T00:28:41;4.53;;;1.67;;
74328;SDS011;62745;51.060;13.786;2023-10-09T00:31:09;4.57;;;2.05;;
74328;SDS011;62745;51.060;13.786;2023-10-09T00:33:40;6.97;;;2.20;;
74328;SDS011;62745;51.060;13.786;2023-10-09T00:36:07;5.40;;;1.85;;
74328;SDS011;62745;51.060;13.786;2023-10-09T00:38:36;5.78;;;2.20;;
74328;SDS011;62745;51.060;13.786;2023-10-09T00:41:04;5.05;;;1.60;;
74328;SDS011;62745;51.060;13.786;2023-10-09T00:43:33;4.40;;;1.50;;
74328;SDS011;62745;51.060;13.786;2023-10-09T00:46:01;5.82;;;1.63;;
74328;SDS011;62745;51.060;13.786;2023-10-09T00:48:36;6.05;;;2.03;;
74328;SDS011;62745;51.060;13.786;2023-10-09T00:51:05;4.53;;;1.58;;
74328;SDS011;62745;51.060;13.786;2023-10-09T00:53:45;6.45;;;1.73;;
74328;SDS011;62745;51.060;13.786;2023-10-09T00:56:15;5.13;;;1.95;;
74328;SDS011;62745;51.060;13.786;2023-10-09T00:58:47;5.20;;;2.00;;
74328;SDS011;62745;51.060;13.786;2023-10-09T01:01:20;4.70;;;1.90;;
74328;SDS011;62745;51.060;13.786;2023-10-09T01:03:51;3.88;;;1.90;;
74328;SDS011;62745;51.060;13.786;2023-10-09T01:06:16;5.15;;;1.70;;
74328;SDS011;62745;51.060;13.786;2023-10-09T01:08:46;4.63;;;1.80;;
74328;SDS011;62745;51.060;13.786;2023-10-09T01:11:21;5.57;;;1.67;;
74328;SDS011;62745;51.060;13.786;2023-10-09T01:13:48;5.78;;;1.88;;
74328;SDS011;62745;51.060;13.786;2023-10-09T01:16:18;5.43;;;1.98;;
74328;SDS011;62745;51.060;13.786;2023-10-09T01:18:51;5.75;;;2.17;;
74328;SDS011;62745;51.060;13.786;2023-10-09T01:21:21;5.80;;;1.80;;
74328;SDS011;62745;51.060;13.786;2023-10-09T01:23:49;6.60;;;2.53;;
74328;SDS011;62745;51.060;13.786;2023-10-09T01:26:30;3.60;;;1.70;;
74328;SDS011;62745;51.060;13.786;2023-10-09T01:31:39;6.07;;;2.03;;
74328;SDS011;62745;51.060;13.786;2023-10-09T01:34:30;4.63;;;1.95;;
74328;SDS011;62745;51.060;13.786;2023-10-09T01:37:14;4.97;;;2.30;;
74328;SDS011;62745;51.060;13.786;2023-10-09T01:39:44;7.63;;;2.25;;
74328;SDS011;62745;51.060;13.786;2023-10-09T01:42:16;9.00;;;2.17;;
74328;SDS011;62745;51.060;13.786;2023-10-09T01:44:50;6.10;;;2.58;;
74328;SDS011;62745;51.060;13.786;2023-10-09T01:47:16;5.68;;;2.25;;
74328;SDS011;62745;51.060;13.786;2023-10-09T01:49:44;7.20;;;2.40;;
74328;SDS011;62745;51.060;13.786;2023-10-09T01:52:14;5.25;;;2.40;;
74328;SDS011;62745;51.060;13.786;2023-10-09T01:54:44;4.55;;;2.25;;
74328;SDS011;62745;51.060;13.786;2023-10-09T01:57:14;5.38;;;2.33;;
74328;SDS011;62745;51.060;13.786;2023-10-09T01:59:44;5.63;;;2.22;;
74328;SDS011;62745;51.060;13.786;2023-10-09T02:02:12;5.45;;;2.95;;
74328;SDS011;62745;51.060;13.786;2023-10-09T02:04:53;4.45;;;2.45;;
74328;SDS011;62745;51.060;13.786;2023-10-09T02:07:46;7.00;;;2.28;;
74328;SDS011;62745;51.060;13.786;2023-10-09T02:10:18;6.07;;;2.20;;
74328;SDS011;62745;51.060;13.786;2023-10-09T02:15:23;7.25;;;2.53;;
74328;SDS011;62745;51.060;13.786;2023-10-09T02:18:22;5.72;;;2.33;;
74328;SDS011;62745;51.060;13.786;2023-10-09T02:20:48;6.60;;;2.20;;
74328;SDS011;62745;51.060;13.786;2023-10-09T02:23:30;5.85;;;2.60;;
74328;SDS011;62745;51.060;13.786;2023-10-09T02:26:04;6.75;;;2.20;;
74328;SDS011;62745;51.060;13.786;2023-10-09T02:28:31;5.78;;;2.47;;
74328;SDS011;62745;51.060;13.786;2023-10-09T02:30:58;7.82;;;2.42;;
74328;SDS011;62745;51.060;13.786;2023-10-09T02:33:36;5.30;;;2.50;;
74328;SDS011;62745;51.060;13.786;2023-10-09T02:36:04;6.72;;;2.20;;
74328;SDS011;62745;51.060;13.786;2023-10-09T02:38:31;4.65;;;2.10;;
74328;SDS011;62745;51.060;13.786;2023-10-09T02:41:00;5.72;;;2.25;;
74328;SDS011;62745;51.060;13.786;2023-10-09T02:43:34;5.28;;;2.50;;
74328;SDS011;62745;51.060;13.786;2023-10-09T02:46:27;7.05;;;2.13;;
74328;SDS011;62745;51.060;13.786;2023-10-09T02:48:56;5.97;;;2.40;;
74328;SDS011;62745;51.060;13.786;2023-10-09T02:51:28;6.93;;;2.20;;
74328;SDS011;62745;51.060;13.786;2023-10-09T02:53:53;5.93;;;2.37;;
74328;SDS011;62745;51.060;13.786;2023-10-09T02:56:21;4.10;;;1.95;;
74328;SDS011;62745;51.060;13.786;2023-10-09T02:58:52;5.68;;;2.03;;
74328;SDS011;62745;51.060;13.786;2023-10-09T03:01:17;5.90;;;2.13;;
74328;SDS011;62745;51.060;13.786;2023-10-09T03:03:43;5.93;;;2.10;;
74328;SDS011;62745;51.060;13.786;2023-10-09T03:06:13;4.90;;;2.03;;
74328;SDS011;62745;51.060;13.786;2023-10-09T03:08:44;5.85;;;2.50;;
74328;SDS011;62745;51.060;13.786;2023-10-09T03:11:09;5.68;;;2.38;;
74328;SDS011;62745;51.060;13.786;2023-10-09T03:13:40;6.10;;;2.30;;
74328;SDS011;62745;51.060;13.786;2023-10-09T03:16:08;6.05;;;2.53;;
74328;SDS011;62745;51.060;13.786;2023-10-09T03:18:39;6.38;;;2.40;;
74328;SDS011;62745;51.060;13.786;2023-10-09T03:21:04;5.78;;;2.60;;
74328;SDS011;62745;51.060;13.786;2023-10-09T03:23:31;5.70;;;2.60;;
74328;SDS011;62745;51.060;13.786;2023-10-09T03:25:56;8.00;;;2.95;;
74328;SDS011;62745;51.060;13.786;2023-10-09T03:28:23;7.32;;;2.92;;
74328;SDS011;62745;51.060;13.786;2023-10-09T03:30:49;5.83;;;2.60;;
74328;SDS011;62745;51.060;13.786;2023-10-09T03:33:15;6.18;;;2.63;;
74328;SDS011;62745;51.060;13.786;2023-10-09T03:35:42;7.32;;;3.10;;
74328;SDS011;62745;51.060;13.786;2023-10-09T03:38:07;6.88;;;2.80;;
74328;SDS011;62745;51.060;13.786;2023-10-09T03:40:37;7.32;;;2.88;;
74328;SDS011;62745;51.060;13.786;2023-10-09T03:43:07;8.23;;;3.35;;
74328;SDS011;62745;51.060;13.786;2023-10-09T03:45:35;6.43;;;2.85;;
74328;SDS011;62745;51.060;13.786;2023-10-09T03:48:00;6.95;;;3.00;;
74328;SDS011;62745;51.060;13.786;2023-10-09T03:50:47;6.13;;;2.92;;
74328;SDS011;62745;51.060;13.786;2023-10-09T03:53:13;9.65;;;3.30;;
74328;SDS011;62745;51.060;13.786;2023-10-09T03:55:38;7.40;;;3.63;;
74328;SDS011;62745;51.060;13.786;2023-10-09T03:58:05;5.75;;;3.28;;
74328;SDS011;62745;51.060;13.786;2023-10-09T04:00:37;8.02;;;3.45;;
74328;SDS011;62745;51.060;13.786;2023-10-09T04:03:14;5.68;;;3.10;;
74328;SDS011;62745;51.060;13.786;2023-10-09T04:05:40;10.65;;;4.05;;
74328;SDS011;62745;51.060;13.786;2023-10-09T04:08:07;7.50;;;3.45;;
74328;SDS011;62745;51.060;13.786;2023-10-09T04:10:38;8.52;;;3.90;;
74328;SDS011;62745;51.060;13.786;2023-10-09T04:13:15;9.23;;;3.97;;
74328;SDS011;62745;51.060;13.786;2023-10-09T04:15:46;7.40;;;3.85;;
74328;SDS011;62745;51.060;13.786;2023-10-09T04:18:14;7.25;;;3.83;;
74328;SDS011;62745;51.060;13.786;2023-10-09T04:20:41;7.38;;;3.85;;
74328;SDS011;62745;51.060;13.786;2023-10-09T04:23:32;7.13;;;3.60;;
74328;SDS011;62745;51.060;13.786;2023-10-09T04:26:14;8.13;;;3.80;;
74328;SDS011;62745;51.060;13.786;2023-10-09T04:28:40;7.97;;;4.10;;
74328;SDS011;62745;51.060;13.786;2023-10-09T04:31:07;10.13;;;4.13;;
74328;SDS011;62745;51.060;13.786;2023-10-09T04:33:32;8.53;;;3.83;;
74328;SDS011;62745;51.060;13.786;2023-10-09T04:36:01;7.90;;;4.03;;
74328;SDS011;62745;51.060;13.786;2023-10-09T04:38:47;9.15;;;4.30;;
74328;SDS011;62745;51.060;13.786;2023-10-09T04:41:28;8.52;;;3.92;;
74328;SDS011;62745;51.060;13.786;2023-10-09T04:43:56;8.45;;;4.07;;
74328;SDS011;62745;51.060;13.786;2023-10-09T04:46:41;8.30;;;3.92;;
74328;SDS011;62745;51.060;13.786;2023-10-09T04:49:10;7.65;;;3.70;;
74328;SDS011;62745;51.060;13.786;2023-10-09T04:51:54;9.57;;;4.13;;
74328;SDS011;62745;51.060;13.786;2023-10-09T04:54:43;8.75;;;4.13;;
74328;SDS011;62745;51.060;13.786;2023-10-09T04:57:28;8.70;;;4.63;;
74328;SDS011;62745;51.060;13.786;2023-10-09T04:59:54;7.55;;;3.65;;
74328;SDS011;62745;51.060;13.786;2023-10-09T05:02:23;8.57;;;4.28;;
74328;SDS011;62745;51.060;13.786;2023-10-09T05:04:49;8.93;;;4.28;;
74328;SDS011;62745;51.060;13.786;2023-10-09T05:07:26;10.43;;;3.95;;
74328;SDS011;62745;51.060;13.786;2023-10-09T05:10:11;9.02;;;4.85;;
74328;SDS011;62745;51.060;13.786;2023-10-09T05:12:41;12.18;;;5.15;;
74328;SDS011;62745;51.060;13.786;2023-10-09T05:15:12;12.27;;;5.75;;
74328;SDS011;62745;51.060;13.786;2023-10-09T05:17:38;9.55;;;5.50;;
74328;SDS011;62745;51.060;13.786;2023-10-09T05:20:05;10.70;;;5.30;;
74328;SDS011;62745;51.060;13.786;2023-10-09T05:22:49;9.80;;;5.40;;
74328;SDS011;62745;51.060;13.786;2023-10-09T05:25:25;11.27;;;5.72;;
74328;SDS011;62745;51.060;13.786;2023-10-09T05:28:10;10.95;;;5.22;;
74328;SDS011;62745;51.060;13.786;2023-10-09T05:30:50;9.10;;;4.72;;
74328;SDS011;62745;51.060;13.786;2023-10-09T05:33:23;9.38;;;5.22;;
74328;SDS011;62745;51.060;13.786;2023-10-09T05:35:54;10.00;;;4.80;;
74328;SDS011;62745;51.060;13.786;2023-10-09T05:38:38;11.88;;;5.55;;
74328;SDS011;62745;51.060;13.786;2023-10-09T05:41:11;9.50;;;5.13;;
74328;SDS011;62745;51.060;13.786;2023-10-09T05:43:56;10.15;;;5.38;;
74328;SDS011;62745;51.060;13.786;2023-10-09T05:46:40;9.75;;;4.72;;
74328;SDS011;62745;51.060;13.786;2023-10-09T05:49:25;10.40;;;5.30;;
74328;SDS011;62745;51.060;13.786;2023-10-09T05:52:10;9.00;;;5.43;;
74328;SDS011;62745;51.060;13.786;2023-10-09T05:54:54;10.05;;;5.18;;
74328;SDS011;62745;51.060;13.786;2023-10-09T05:57:39;11.60;;;5.47;;
74328;SDS011;62745;51.060;13.786;2023-10-09T06:00:23;11.18;;;5.15;;
74328;SDS011;62745;51.060;13.786;2023-10-09T06:03:08;13.38;;;5.90;;
74328;SDS011;62745;51.060;13.786;2023-10-09T06:05:46;10.95;;;5.70;;
74328;SDS011;62745;51.060;13.786;2023-10-09T06:08:19;11.50;;;6.22;;
74328;SDS011;62745;51.060;13.786;2023-10-09T06:11:03;8.60;;;5.22;;
74328;SDS011;62745;51.060;13.786;2023-10-09T06:13:56;16.45;;;5.53;;
74328;SDS011;62745;51.060;13.786;2023-10-09T06:16:45;10.43;;;5.85;;
74328;SDS011;62745;51.060;13.786;2023-10-09T06:19:22;11.90;;;5.97;;
74328;SDS011;62745;51.060;13.786;2023-10-09T06:21:48;11.23;;;6.03;;
74328;SDS011;62745;51.060;13.786;2023-10-09T06:24:17;12.10;;;6.30;;
74328;SDS011;62745;51.060;13.786;2023-10-09T06:26:48;11.82;;;6.20;;
74328;SDS011;62745;51.060;13.786;2023-10-09T06:29:41;12.00;;;6.53;;
74328;SDS011;62745;51.060;13.786;2023-10-09T06:32:10;11.50;;;6.15;;
74328;SDS011;62745;51.060;13.786;2023-10-09T06:34:48;9.82;;;5.82;;
74328;SDS011;62745;51.060;13.786;2023-10-09T06:37:18;11.20;;;5.78;;
74328;SDS011;62745;51.060;13.786;2023-10-09T06:39:50;10.27;;;6.60;;
74328;SDS011;62745;51.060;13.786;2023-10-09T06:42:22;14.27;;;6.28;;
74328;SDS011;62745;51.060;13.786;2023-10-09T06:45:04;9.35;;;5.78;;
74328;SDS011;62745;51.060;13.786;2023-10-09T06:47:34;12.20;;;6.60;;
74328;SDS011;62745;51.060;13.786;2023-10-09T06:50:07;12.65;;;6.50;;
74328;SDS011;62745;51.060;13.786;2023-10-09T06:52:45;12.40;;;6.50;;
74328;SDS011;62745;51.060;13.786;2023-10-09T06:55:25;11.93;;;5.93;;
74328;SDS011;62745;51.060;13.786;2023-10-09T06:58:02;13.13;;;6.82;;
74328;SDS011;62745;51.060;13.786;2023-10-09T07:00:38;15.43;;;6.60;;
74328;SDS011;62745;51.060;13.786;2023-10-09T07:03:39;11.05;;;6.55;;
74328;SDS011;62745;51.060;13.786;2023-10-09T07:06:24;11.85;;;6.25;;
74328;SDS011;62745;51.060;13.786;2023-10-09T07:09:11;11.88;;;6.47;;
74328;SDS011;62745;51.060;13.786;2023-10-09T07:11:38;13.45;;;6.85;;
74328;SDS011;62745;51.060;13.786;2023-10-09T07:14:23;11.75;;;6.72;;
74328;SDS011;62745;51.060;13.786;2023-10-09T07:16:55;13.05;;;6.35;;
74328;SDS011;62745;51.060;13.786;2023-10-09T07:19:31;14.43;;;6.65;;
74328;SDS011;62745;51.060;13.786;2023-10-09T07:21:59;12.60;;;6.55;;
74328;SDS011;62745;51.060;13.786;2023-10-09T07:24:28;12.43;;;6.47;;
74328;SDS011;62745;51.060;13.786;2023-10-09T07:27:06;13.52;;;6.57;;
74328;SDS011;62745;51.060;13.786;2023-10-09T07:29:35;11.35;;;6.22;;
74328;SDS011;62745;51.060;13.786;2023-10-09T07:32:12;12.77;;;6.43;;
74328;SDS011;62745;51.060;13.786;2023-10-09T07:34:44;15.00;;;6.88;;
74328;SDS011;62745;51.060;13.786;2023-10-09T07:37:22;13.70;;;6.60;;
74328;SDS011;62745;51.060;13.786;2023-10-09T07:39:51;11.45;;;6.50;;
74328;SDS011;62745;51.060;13.786;2023-10-09T07:42:23;15.82;;;6.68;;
74328;SDS011;62745;51.060;13.786;2023-10-09T07:44:58;14.68;;;7.10;;
74328;SDS011;62745;51.060;13.786;2023-10-09T07:47:36;15.18;;;7.05;;
74328;SDS011;62745;51.060;13.786;2023-10-09T07:50:24;13.43;;;7.30;;
74328;SDS011;62745;51.060;13.786;2023-10-09T07:52:55;12.60;;;6.60;;
74328;SDS011;62745;51.060;13.786;2023-10-09T07:55:39;10.77;;;6.30;;
74328;SDS011;62745;51.060;13.786;2023-10-09T07:58:10;12.35;;;6.32;;
74328;SDS011;62745;51.060;13.786;2023-10-09T08:00:36;12.63;;;7.03;;
74328;SDS011;62745;51.060;13.786;2023-10-09T08:03:15;14.10;;;6.93;;
74328;SDS011;62745;51.060;13.786;2023-10-09T08:05:48;16.60;;;6.68;;
74328;SDS011;62745;51.060;13.786;2023-10-09T08:08:14;13.35;;;7.20;;
74328;SDS011;62745;51.060;13.786;2023-10-09T08:11:07;11.98;;;7.13;;
74328;SDS011;62745;51.060;13.786;2023-10-09T08:14:04;16.25;;;7.30;;
74328;SDS011;62745;51.060;13.786;2023-10-09T08:16:45;11.52;;;6.65;;
74328;SDS011;62745;51.060;13.786;2023-10-09T08:19:11;11.88;;;6.35;;
74328;SDS011;62745;51.060;13.786;2023-10-09T08:21:55;14.60;;;7.25;;
74328;SDS011;62745;51.060;13.786;2023-10-09T08:24:53;12.98;;;6.75;;
74328;SDS011;62745;51.060;13.786;2023-10-09T08:27:28;14.80;;;8.10;;
74328;SDS011;62745;51.060;13.786;2023-10-09T08:29:55;14.05;;;8.32;;
74328;SDS011;62745;51.060;13.786;2023-10-09T08:32:47;14.05;;;7.90;;
74328;SDS011;62745;51.060;13.786;2023-10-09T08:35:48;11.50;;;7.00;;
74328;SDS011;62745;51.060;13.786;2023-10-09T08:38:14;12.52;;;7.40;;
74328;SDS011;62745;51.060;13.786;2023-10-09T08:40:42;13.18;;;7.78;;
74328;SDS011;62745;51.060;13.786;2023-10-09T08:43:14;15.02;;;7.72;;
74328;SDS011;62745;51.060;13.786;2023-10-09T08:45:45;13.63;;;7.35;;
74328;SDS011;62745;51.060;13.786;2023-10-09T08:48:11;13.43;;;7.25;;
74328;SDS011;62745;51.060;13.786;2023-10-09T08:50:40;16.13;;;8.20;;
74328;SDS011;62745;51.060;13.786;2023-10-09T08:53:12;14.55;;;7.75;;
74328;SDS011;62745;51.060;13.786;2023-10-09T08:55:38;14.32;;;7.25;;
74328;SDS011;62745;51.060;13.786;2023-10-09T08:58:05;14.73;;;7.57;;
74328;SDS011;62745;51.060;13.786;2023-10-09T09:00:38;13.60;;;6.95;;
74328;SDS011;62745;51.060;13.786;2023-10-09T09:03:08;12.75;;;7.15;;
74328;SDS011;62745;51.060;13.786;2023-10-09T09:05:33;13.40;;;6.72;;
74328;SDS011;62745;51.060;13.786;2023-10-09T09:08:00;14.23;;;7.70;;
74328;SDS011;62745;51.060;13.786;2023-10-09T09:10:28;15.55;;;8.10;;
74328;SDS011;62745;51.060;13.786;2023-10-09T09:13:03;15.68;;;7.97;;
74328;SDS011;62745;51.060;13.786;2023-10-09T09:15:31;15.32;;;7.78;;
74328;SDS011;62745;51.060;13.786;2023-10-09T09:18:05;16.63;;;8.20;;
74328;SDS011;62745;51.060;13.786;2023-10-09T09:20:31;16.77;;;7.60;;
74328;SDS011;62745;51.060;13.786;2023-10-09T09:23:01;15.05;;;7.45;;
74328;SDS011;62745;51.060;13.786;2023-10-09T09:25:40;13.90;;;7.47;;
74328;SDS011;62745;51.060;13.786;2023-10-09T09:28:09;14.02;;;6.82;;
74328;SDS011;62745;51.060;13.786;2023-10-09T09:30:37;16.92;;;8.35;;
74328;SDS011;62745;51.060;13.786;2023-10-09T09:36:03;15.07;;;7.28;;
74328;SDS011;62745;51.060;13.786;2023-10-09T09:38:29;15.98;;;7.93;;
74328;SDS011;62745;51.060;13.786;2023-10-09T09:41:07;18.65;;;8.75;;
74328;SDS011;62745;51.060;13.786;2023-10-09T09:43:34;16.50;;;8.63;;
74328;SDS011;62745;51.060;13.786;2023-10-09T09:46:01;17.25;;;8.45;;
74328;SDS011;62745;51.060;13.786;2023-10-09T09:48:32;16.00;;;7.68;;
74328;SDS011;62745;51.060;13.786;2023-10-09T09:51:04;18.63;;;8.43;;
74328;SDS011;62745;51.060;13.786;2023-10-09T09:53:36;23.13;;;8.25;;
74328;SDS011;62745;51.060;13.786;2023-10-09T09:56:05;15.40;;;7.57;;
74328;SDS011;62745;51.060;13.786;2023-10-09T09:58:31;22.20;;;7.93;;
74328;SDS011;62745;51.060;13.786;2023-10-09T10:01:07;16.38;;;7.78;;
74328;SDS011;62745;51.060;13.786;2023-10-09T10:03:51;16.30;;;7.70;;
74328;SDS011;62745;51.060;13.786;2023-10-09T10:06:22;11.85;;;6.53;;
74328;SDS011;62745;51.060;13.786;2023-10-09T10:08:58;13.40;;;6.32;;
74328;SDS011;62745;51.060;13.786;2023-10-09T10:11:43;15.40;;;6.63;;
74328;SDS011;62745;51.060;13.786;2023-10-09T10:14:10;13.65;;;6.63;;
74328;SDS011;62745;51.060;13.786;2023-10-09T10:20:04;13.60;;;6.65;;
74328;SDS011;62745;51.060;13.786;2023-10-09T10:22:29;15.57;;;6.70;;
74328;SDS011;62745;51.060;13.786;2023-10-09T10:25:02;16.90;;;7.43;;
74328;SDS011;62745;51.060;13.786;2023-10-09T10:27:34;15.68;;;6.45;;
74328;SDS011;62745;51.060;13.786;2023-10-09T10:35:20;16.42;;;7.05;;
74328;SDS011;62745;51.060;13.786;2023-10-09T10:37:57;13.45;;;6.50;;
74328;SDS011;62745;51.060;13.786;2023-10-09T10:40:39;12.50;;;5.68;;
74328;SDS011;62745;51.060;13.786;2023-10-09T10:43:17;13.88;;;6.90;;
74328;SDS011;62745;51.060;13.786;2023-10-09T10:46:02;15.52;;;6.40;;
74328;SDS011;62745;51.060;13.786;2023-10-09T10:48:52;12.93;;;6.95;;
74328;SDS011;62745;51.060;13.786;2023-10-09T10:51:39;13.35;;;6.85;;
74328;SDS011;62745;51.060;13.786;2023-10-09T10:54:05;15.90;;;7.05;;
74328;SDS011;62745;51.060;13.786;2023-10-09T10:56:50;18.45;;;7.65;;
74328;SDS011;62745;51.060;13.786;2023-10-09T10:59:17;16.65;;;7.45;;
74328;SDS011;62745;51.060;13.786;2023-10-09T11:01:50;17.75;;;8.07;;
74328;SDS011;62745;51.060;13.786;2023-10-09T11:04:39;17.00;;;8.13;;
74328;SDS011;62745;51.060;13.786;2023-10-09T11:07:07;16.30;;;7.93;;
74328;SDS011;62745;51.060;13.786;2023-10-09T11:09:45;18.73;;;7.93;;
74328;SDS011;62745;51.060;13.786;2023-10-09T11:12:46;17.17;;;8.48;;
74328;SDS011;62745;51.060;13.786;2023-10-09T11:15:29;19.00;;;8.15;;
74328;SDS011;62745;51.060;13.786;2023-10-09T11:18:06;19.17;;;8.32;;
74328;SDS011;62745;51.060;13.786;2023-10-09T11:20:33;16.63;;;8.00;;
74328;SDS011;62745;51.060;13.786;2023-10-09T11:23:00;17.05;;;8.63;;
74328;SDS011;62745;51.060;13.786;2023-10-09T11:25:35;20.08;;;8.85;;
74328;SDS011;62745;51.060;13.786;2023-10-09T11:28:03;17.75;;;8.15;;
74328;SDS011;62745;51.060;13.786;2023-10-09T11:30:40;17.40;;;9.25;;
74328;SDS011;62745;51.060;13.786;2023-10-09T11:33:06;15.63;;;8.10;;
74328;SDS011;62745;51.060;13.786;2023-10-09T11:35:39;18.15;;;8.35;;
74328;SDS011;62745;51.060;13.786;2023-10-09T11:38:06;17.15;;;8.45;;
74328;SDS011;62745;51.060;13.786;2023-10-09T11:40:46;14.88;;;7.30;;
74328;SDS011;62745;51.060;13.786;2023-10-09T11:43:20;16.20;;;7.32;;
74328;SDS011;62745;51.060;13.786;2023-10-09T11:46:11;18.65;;;8.48;;
74328;SDS011;62745;51.060;13.786;2023-10-09T11:48:37;15.07;;;7.90;;
74328;SDS011;62745;51.060;13.786;2023-10-09T11:51:22;23.23;;;8.68;;
74328;SDS011;62745;51.060;13.786;2023-10-09T11:53:47;16.97;;;9.03;;
74328;SDS011;62745;51.060;13.786;2023-10-09T11:56:15;17.08;;;8.68;;
74328;SDS011;62745;51.060;13.786;2023-10-09T11:58:48;16.35;;;8.25;;
74328;SDS011;62745;51.060;13.786;2023-10-09T12:01:16;18.40;;;8.60;;
74328;SDS011;62745;51.060;13.786;2023-10-09T12:03:45;20.83;;;9.27;;
74328;SDS011;62745;51.060;13.786;2023-10-09T12:06:17;21.02;;;10.57;;
74328;SDS011;62745;51.060;13.786;2023-10-09T12:08:45;18.52;;;9.32;;
74328;SDS011;62745;51.060;13.786;2023-10-09T12:11:14;23.25;;;10.20;;
74328;SDS011;62745;51.060;13.786;2023-10-09T12:13:47;18.85;;;9.40;;
74328;SDS011;62745;51.060;13.786;2023-10-09T12:16:21;25.67;;;10.77;;
74328;SDS011;62745;51.060;13.786;2023-10-09T12:18:47;18.27;;;8.90;;
74328;SDS011;62745;51.060;13.786;2023-10-09T12:21:18;20.77;;;8.98;;
74328;SDS011;62745;51.060;13.786;2023-10-09T12:23:43;17.98;;;8.15;;
74328;SDS011;62745;51.060;13.786;2023-10-09T12:26:12;17.98;;;9.25;;
74328;SDS011;62745;51.060;13.786;2023-10-09T12:28:39;18.92;;;8.88;;
74328;SDS011;62745;51.060;13.786;2023-10-09T12:31:05;17.90;;;8.00;;
74328;SDS011;62745;51.060;13.786;2023-10-09T12:33:31;15.70;;;7.88;;
74328;SDS011;62745;51.060;13.786;2023-10-09T12:35:57;15.15;;;7.93;;
74328;SDS011;62745;51.060;13.786;2023-10-09T12:38:28;15.57;;;7.00;;
74328;SDS011;62745;51.060;13.786;2023-10-09T12:43:33;14.55;;;7.20;;
74328;SDS011;62745;51.060;13.786;2023-10-09T12:46:06;12.95;;;6.72;;
74328;SDS011;62745;51.060;13.786;2023-10-09T12:48:32;14.63;;;7.28;;
74328;SDS011;62745;51.060;13.786;2023-10-09T12:50:58;14.68;;;7.30;;
74328;SDS011;62745;51.060;13.786;2023-10-09T12:53:30;15.70;;;7.18;;
74328;SDS011;62745;51.060;13.786;2023-10-09T12:55:56;14.75;;;7.45;;
74328;SDS011;62745;51.060;13.786;2023-10-09T12:58:21;13.35;;;7.07;;
74328;SDS011;62745;51.060;13.786;2023-10-09T13:00:48;17.00;;;7.35;;
74328;SDS011;62745;51.060;13.786;2023-10-09T13:03:16;13.88;;;6.78;;
74328;SDS011;62745;51.060;13.786;2023-10-09T13:08:20;14.65;;;7.68;;
74328;SDS011;62745;51.060;13.786;2023-10-09T13:13:23;15.02;;;6.78;;
74328;SDS011;62745;51.060;13.786;2023-10-09T13:15:51;14.57;;;7.43;;
74328;SDS011;62745;51.060;13.786;2023-10-09T13:18:18;16.40;;;7.10;;
74328;SDS011;62745;51.060;13.786;2023-10-09T13:20:43;15.33;;;7.93;;
74328;SDS011;62745;51.060;13.786;2023-10-09T13:23:10;14.65;;;6.95;;
74328;SDS011;62745;51.060;13.786;2023-10-09T13:25:39;12.55;;;6.63;;
74328;SDS011;62745;51.060;13.786;2023-10-09T13:28:05;14.65;;;6.85;;
74328;SDS011;62745;51.060;13.786;2023-10-09T13:30:30;14.88;;;7.57;;
74328;SDS011;62745;51.060;13.786;2023-10-09T13:33:04;15.93;;;7.07;;
74328;SDS011;62745;51.060;13.786;2023-10-09T13:35:30;16.05;;;7.78;;
74328;SDS011;62745;51.060;13.786;2023-10-09T13:38:02;14.38;;;6.65;;
74328;SDS011;62745;51.060;13.786;2023-10-09T13:40:34;12.13;;;7.13;;
74328;SDS011;62745;51.060;13.786;2023-10-09T13:43:02;17.27;;;7.75;;
74328;SDS011;62745;51.060;13.786;2023-10-09T13:45:31;13.85;;;6.72;;
74328;SDS011;62745;51.060;13.786;2023-10-09T13:47:58;15.95;;;7.65;;
74328;SDS011;62745;51.060;13.786;2023-10-09T13:50:23;12.55;;;6.53;;
74328;SDS011;62745;51.060;13.786;2023-10-09T13:52:53;13.50;;;7.13;;
74328;SDS011;62745;51.060;13.786;2023-10-09T13:55:19;13.02;;;6.45;;
74328;SDS011;62745;51.060;13.786;2023-10-09T13:57:44;11.73;;;6.90;;
74328;SDS011;62745;51.060;13.786;2023-10-09T14:00:13;12.45;;;6.75;;
74328;SDS011;62745;51.060;13.786;2023-10-09T14:02:45;11.82;;;6.93;;
74328;SDS011;62745;51.060;13.786;2023-10-09T14:05:11;12.50;;;6.35;;
74328;SDS011;62745;51.060;13.786;2023-10-09T14:07:37;12.68;;;6.65;;
74328;SDS011;62745;51.060;13.786;2023-10-09T14:10:03;14.63;;;7.18;;
74328;SDS011;62745;51.060;13.786;2023-10-09T14:12:55;12.02;;;6.63;;
74328;SDS011;62745;51.060;13.786;2023-10-09T14:15:21;12.32;;;6.93;;
74328;SDS011;62745;51.060;13.786;2023-10-09T14:17:47;15.60;;;6.93;;
74328;SDS011;62745;51.060;13.786;2023-10-09T14:20:20;13.15;;;7.30;;
74328;SDS011;62745;51.060;13.786;2023-10-09T14:22:55;14.05;;;7.43;;
74328;SDS011;62745;51.060;13.786;2023-10-09T14:25:23;15.95;;;6.80;;
74328;SDS011;62745;51.060;13.786;2023-10-09T14:27:48;14.00;;;7.78;;
74328;SDS011;62745;51.060;13.786;2023-10-09T14:30:14;11.67;;;6.80;;
74328;SDS011;62745;51.060;13.786;2023-10-09T14:32:54;12.35;;;6.97;;
74328;SDS011;62745;51.060;13.786;2023-10-09T14:35:21;13.13;;;6.88;;
74328;SDS011;62745;51.060;13.786;2023-10-09T14:37:51;11.00;;;6.63;;
74328;SDS011;62745;51.060;13.786;2023-10-09T14:40:16;14.02;;;7.00;;
74328;SDS011;62745;51.060;13.786;2023-10-09T14:42:46;13.73;;;7.00;;
74328;SDS011;62745;51.060;13.786;2023-10-09T14:45:11;11.88;;;6.90;;
74328;SDS011;62745;51.060;13.786;2023-10-09T14:47:43;11.38;;;6.22;;
74328;SDS011;62745;51.060;13.786;2023-10-09T14:50:11;12.52;;;5.40;;
74328;SDS011;62745;51.060;13.786;2023-10-09T14:52:38;12.93;;;6.70;;
74328;SDS011;62745;51.060;13.786;2023-10-09T14:55:04;12.63;;;6.43;;
74328;SDS011;62745;51.060;13.786;2023-10-09T14:57:30;12.90;;;6.95;;
74328;SDS011;62745;51.060;13.786;2023-10-09T14:59:59;10.95;;;6.00;;
74328;SDS011;62745;51.060;13.786;2023-10-09T15:02:27;12.98;;;6.65;;
74328;SDS011;62745;51.060;13.786;2023-10-09T15:04:54;12.23;;;7.20;;
74328;SDS011;62745;51.060;13.786;2023-10-09T15:07:19;11.00;;;6.00;;
74328;SDS011;62745;51.060;13.786;2023-10-09T15:09:46;10.38;;;5.28;;
74328;SDS011;62745;51.060;13.786;2023-10-09T15:12:11;11.80;;;6.30;;
74328;SDS011;62745;51.060;13.786;2023-10-09T15:14:36;9.38;;;4.82;;
74328;SDS011;62745;51.060;13.786;2023-10-09T15:17:03;8.45;;;4.65;;
74328;SDS011;62745;51.060;13.786;2023-10-09T15:19:28;9.23;;;4.33;;
74328;SDS011;62745;51.060;13.786;2023-10-09T15:21:57;7.40;;;3.78;;